sensor_id;sensor_type;location;lat;lon;timestamp;P1;durP1;ratioP1;P2;durP2;ratioP2
3597;SDS011;1813;52.016;8.714;2023-05-25T00:01:40;25.90;;;12.30;;
3597;SDS011;1813;52.016;8.714;2023-05-25T00:04:21;25.90;;;14.30;;
3597;SDS011;1813;52.016;8.714;2023-05-25T00:06:56;23.90;;;13.30;;
3597;SDS011;1813;52.016;8.714;2023-05-25T00:09:30;24.47;;;13.10;;
3597;SDS011;1813;52.016;8.714;2023-05-25T00:12:04;24.40;;;13.17;;
3597;SDS011;1813;52.016;8.714;2023-05-25T00:14:38;30.90;;;13.87;;
3597;SDS011;1813;52.016;8.714;2023-05-25T00:17:12;23.50;;;13.77;;
3597;SDS011;1813;52.016;8.714;2023-05-25T00:19:50;22.47;;;13.93;;
3597;SDS011;1813;52.016;8.714;2023-05-25T00:22:30;20.77;;;13.20;;
3597;SDS011;1813;52.016;8.714;2023-05-25T00:25:04;20.70;;;13.10;;
3597;SDS011;1813;52.016;8.714;2023-05-25T00:27:39;25.97;;;14.33;;
3597;SDS011;1813;52.016;8.714;2023-05-25T00:30:13;24.30;;;13.80;;
3597;SDS011;1813;52.016;8.714;2023-05-25T00:32:47;29.23;;;14.40;;
3597;SDS011;1813;52.016;8.714;2023-05-25T00:35:23;27.97;;;12.73;;
3597;SDS011;1813;52.016;8.714;2023-05-25T00:37:58;26.53;;;14.00;;
3597;SDS011;1813;52.016;8.714;2023-05-25T00:40:31;20.07;;;13.23;;
3597;SDS011;1813;52.016;8.714;2023-05-25T00:43:07;26.00;;;13.53;;
3597;SDS011;1813;52.016;8.714;2023-05-25T00:45:41;25.77;;;13.97;;
3597;SDS011;1813;52.016;8.714;2023-05-25T00:48:15;26.57;;;13.57;;
3597;SDS011;1813;52.016;8.714;2023-05-25T00:50:52;25.80;;;14.10;;
3597;SDS011;1813;52.016;8.714;2023-05-25T00:53:27;33.43;;;15.07;;
3597;SDS011;1813;52.016;8.714;2023-05-25T00:56:04;33.73;;;15.43;;
3597;SDS011;1813;52.016;8.714;2023-05-25T00:58:43;25.07;;;14.87;;
3597;SDS011;1813;52.016;8.714;2023-05-25T01:01:19;29.23;;;14.40;;
3597;SDS011;1813;52.016;8.714;2023-05-25T01:03:54;25.23;;;13.60;;
3597;SDS011;1813;52.016;8.714;2023-05-25T01:06:33;26.67;;;14.20;;
3597;SDS011;1813;52.016;8.714;2023-05-25T01:09:11;25.47;;;14.10;;
3597;SDS011;1813;52.016;8.714;2023-05-25T01:11:48;29.73;;;14.73;;
3597;SDS011;1813;52.016;8.714;2023-05-25T01:14:23;30.70;;;16.07;;
3597;SDS011;1813;52.016;8.714;2023-05-25T01:16:59;39.07;;;17.43;;
3597;SDS011;1813;52.016;8.714;2023-05-25T01:19:34;31.33;;;18.27;;
3597;SDS011;1813;52.016;8.714;2023-05-25T01:22:14;37.83;;;19.13;;
3597;SDS011;1813;52.016;8.714;2023-05-25T01:24:55;37.90;;;18.53;;
3597;SDS011;1813;52.016;8.714;2023-05-25T01:27:35;27.87;;;15.83;;
3597;SDS011;1813;52.016;8.714;2023-05-25T01:30:13;31.67;;;16.77;;
3597;SDS011;1813;52.016;8.714;2023-05-25T01:32:49;28.07;;;16.27;;
3597;SDS011;1813;52.016;8.714;2023-05-25T01:35:22;32.63;;;17.50;;
3597;SDS011;1813;52.016;8.714;2023-05-25T01:37:59;40.40;;;17.90;;
3597;SDS011;1813;52.016;8.714;2023-05-25T01:40:34;40.93;;;18.43;;
3597;SDS011;1813;52.016;8.714;2023-05-25T01:43:08;37.97;;;19.20;;
3597;SDS011;1813;52.016;8.714;2023-05-25T01:45:42;40.00;;;19.47;;
3597;SDS011;1813;52.016;8.714;2023-05-25T01:48:19;34.87;;;18.60;;
3597;SDS011;1813;52.016;8.714;2023-05-25T01:50:59;33.10;;;17.43;;
3597;SDS011;1813;52.016;8.714;2023-05-25T01:53:41;27.70;;;16.03;;
3597;SDS011;1813;52.016;8.714;2023-05-25T01:56:17;28.33;;;16.07;;
3597;SDS011;1813;52.016;8.714;2023-05-25T01:58:53;29.00;;;16.73;;
3597;SDS011;1813;52.016;8.714;2023-05-25T02:01:30;24.97;;;15.80;;
3597;SDS011;1813;52.016;8.714;2023-05-25T02:04:06;26.93;;;15.40;;
3597;SDS011;1813;52.016;8.714;2023-05-25T02:06:41;29.00;;;16.80;;
3597;SDS011;1813;52.016;8.714;2023-05-25T02:09:17;30.57;;;16.37;;
3597;SDS011;1813;52.016;8.714;2023-05-25T02:11:51;22.57;;;15.00;;
3597;SDS011;1813;52.016;8.714;2023-05-25T02:14:24;27.30;;;14.77;;
3597;SDS011;1813;52.016;8.714;2023-05-25T02:16:58;23.33;;;13.77;;
3597;SDS011;1813;52.016;8.714;2023-05-25T02:19:34;19.80;;;13.57;;
3597;SDS011;1813;52.016;8.714;2023-05-25T02:22:08;30.20;;;13.97;;
3597;SDS011;1813;52.016;8.714;2023-05-25T02:24:44;46.73;;;13.57;;
3597;SDS011;1813;52.016;8.714;2023-05-25T02:27:18;96.57;;;10.00;;
3597;SDS011;1813;52.016;8.714;2023-05-25T02:29:52;64.87;;;10.43;;
3597;SDS011;1813;52.016;8.714;2023-05-25T02:32:29;122.27;;;10.47;;
3597;SDS011;1813;52.016;8.714;2023-05-25T02:35:03;41.00;;;10.60;;
3597;SDS011;1813;52.016;8.714;2023-05-25T02:37:37;63.60;;;11.30;;
3597;SDS011;1813;52.016;8.714;2023-05-25T02:40:15;181.90;;;12.40;;
3597;SDS011;1813;52.016;8.714;2023-05-25T02:42:50;149.43;;;12.90;;
3597;SDS011;1813;52.016;8.714;2023-05-25T02:45:24;256.27;;;14.10;;
3597;SDS011;1813;52.016;8.714;2023-05-25T02:47:58;106.03;;;13.47;;
3597;SDS011;1813;52.016;8.714;2023-05-25T02:50:32;47.83;;;13.77;;
3597;SDS011;1813;52.016;8.714;2023-05-25T02:53:10;31.80;;;14.90;;
3597;SDS011;1813;52.016;8.714;2023-05-25T02:55:46;96.57;;;14.27;;
3597;SDS011;1813;52.016;8.714;2023-05-25T02:58:23;209.97;;;16.43;;
3597;SDS011;1813;52.016;8.714;2023-05-25T03:01:08;32.73;;;13.67;;
3597;SDS011;1813;52.016;8.714;2023-05-25T03:03:48;38.33;;;14.70;;
3597;SDS011;1813;52.016;8.714;2023-05-25T03:06:24;25.83;;;14.80;;
3597;SDS011;1813;52.016;8.714;2023-05-25T03:09:05;27.43;;;16.53;;
3597;SDS011;1813;52.016;8.714;2023-05-25T03:11:44;24.33;;;15.90;;
3597;SDS011;1813;52.016;8.714;2023-05-25T03:14:20;23.53;;;15.90;;
3597;SDS011;1813;52.016;8.714;2023-05-25T03:17:03;18.77;;;13.77;;
3597;SDS011;1813;52.016;8.714;2023-05-25T03:19:37;21.27;;;15.00;;
3597;SDS011;1813;52.016;8.714;2023-05-25T03:22:12;21.83;;;15.63;;
3597;SDS011;1813;52.016;8.714;2023-05-25T03:24:46;22.20;;;15.23;;
3597;SDS011;1813;52.016;8.714;2023-05-25T03:27:23;19.83;;;15.27;;
3597;SDS011;1813;52.016;8.714;2023-05-25T03:29:58;25.00;;;15.57;;
3597;SDS011;1813;52.016;8.714;2023-05-25T03:32:32;22.23;;;14.40;;
3597;SDS011;1813;52.016;8.714;2023-05-25T03:35:06;20.07;;;15.10;;
3597;SDS011;1813;52.016;8.714;2023-05-25T03:37:41;23.10;;;15.83;;
3597;SDS011;1813;52.016;8.714;2023-05-25T03:40:15;23.10;;;13.97;;
3597;SDS011;1813;52.016;8.714;2023-05-25T03:42:51;22.77;;;15.00;;
3597;SDS011;1813;52.016;8.714;2023-05-25T03:45:25;28.13;;;16.07;;
3597;SDS011;1813;52.016;8.714;2023-05-25T03:47:59;22.27;;;15.73;;
3597;SDS011;1813;52.016;8.714;2023-05-25T03:50:34;26.80;;;16.30;;
3597;SDS011;1813;52.016;8.714;2023-05-25T03:53:10;28.57;;;17.30;;
3597;SDS011;1813;52.016;8.714;2023-05-25T03:55:44;35.53;;;17.80;;
3597;SDS011;1813;52.016;8.714;2023-05-25T03:58:24;32.23;;;18.17;;
3597;SDS011;1813;52.016;8.714;2023-05-25T04:00:58;35.07;;;18.60;;
3597;SDS011;1813;52.016;8.714;2023-05-25T04:03:32;28.77;;;18.47;;
3597;SDS011;1813;52.016;8.714;2023-05-25T04:06:06;30.07;;;18.73;;
3597;SDS011;1813;52.016;8.714;2023-05-25T04:08:40;38.90;;;18.60;;
3597;SDS011;1813;52.016;8.714;2023-05-25T04:11:14;26.93;;;17.73;;
3597;SDS011;1813;52.016;8.714;2023-05-25T04:13:51;32.97;;;17.70;;
3597;SDS011;1813;52.016;8.714;2023-05-25T04:16:27;35.47;;;18.70;;
3597;SDS011;1813;52.016;8.714;2023-05-25T04:19:02;34.30;;;19.13;;
3597;SDS011;1813;52.016;8.714;2023-05-25T04:21:36;31.40;;;18.90;;
3597;SDS011;1813;52.016;8.714;2023-05-25T04:24:10;34.90;;;19.33;;
3597;SDS011;1813;52.016;8.714;2023-05-25T04:26:43;33.30;;;19.20;;
3597;SDS011;1813;52.016;8.714;2023-05-25T04:29:20;37.03;;;19.27;;
3597;SDS011;1813;52.016;8.714;2023-05-25T04:32:12;32.67;;;18.43;;
3597;SDS011;1813;52.016;8.714;2023-05-25T04:34:54;36.67;;;19.67;;
3597;SDS011;1813;52.016;8.714;2023-05-25T04:37:35;38.40;;;20.33;;
3597;SDS011;1813;52.016;8.714;2023-05-25T04:40:11;27.70;;;16.80;;
3597;SDS011;1813;52.016;8.714;2023-05-25T04:42:46;31.50;;;17.13;;
3597;SDS011;1813;52.016;8.714;2023-05-25T04:45:28;28.67;;;17.20;;
3597;SDS011;1813;52.016;8.714;2023-05-25T04:48:06;34.97;;;18.43;;
3597;SDS011;1813;52.016;8.714;2023-05-25T04:50:41;31.00;;;18.97;;
3597;SDS011;1813;52.016;8.714;2023-05-25T04:53:15;31.07;;;18.87;;
3597;SDS011;1813;52.016;8.714;2023-05-25T04:55:49;38.13;;;19.20;;
3597;SDS011;1813;52.016;8.714;2023-05-25T04:58:24;36.70;;;20.03;;
3597;SDS011;1813;52.016;8.714;2023-05-25T05:01:01;38.93;;;19.87;;
3597;SDS011;1813;52.016;8.714;2023-05-25T05:03:36;41.40;;;22.43;;
3597;SDS011;1813;52.016;8.714;2023-05-25T05:06:10;43.07;;;21.23;;
3597;SDS011;1813;52.016;8.714;2023-05-25T05:08:44;42.13;;;21.80;;
3597;SDS011;1813;52.016;8.714;2023-05-25T05:11:17;46.03;;;22.43;;
3597;SDS011;1813;52.016;8.714;2023-05-25T05:13:53;48.33;;;21.30;;
3597;SDS011;1813;52.016;8.714;2023-05-25T05:16:31;41.53;;;20.70;;
3597;SDS011;1813;52.016;8.714;2023-05-25T05:19:07;34.70;;;20.70;;
3597;SDS011;1813;52.016;8.714;2023-05-25T05:21:42;35.97;;;19.83;;
3597;SDS011;1813;52.016;8.714;2023-05-25T05:24:16;36.07;;;20.83;;
3597;SDS011;1813;52.016;8.714;2023-05-25T05:26:51;41.60;;;20.50;;
3597;SDS011;1813;52.016;8.714;2023-05-25T05:29:24;38.60;;;20.03;;
3597;SDS011;1813;52.016;8.714;2023-05-25T05:32:01;39.40;;;19.67;;
3597;SDS011;1813;52.016;8.714;2023-05-25T05:34:36;35.80;;;18.43;;
3597;SDS011;1813;52.016;8.714;2023-05-25T05:37:17;34.33;;;19.47;;
3597;SDS011;1813;52.016;8.714;2023-05-25T05:39:51;32.70;;;18.23;;
3597;SDS011;1813;52.016;8.714;2023-05-25T05:42:24;31.80;;;18.40;;
3597;SDS011;1813;52.016;8.714;2023-05-25T05:44:58;31.47;;;18.27;;
3597;SDS011;1813;52.016;8.714;2023-05-25T05:47:35;33.93;;;17.10;;
3597;SDS011;1813;52.016;8.714;2023-05-25T05:50:09;31.63;;;18.27;;
3597;SDS011;1813;52.016;8.714;2023-05-25T05:52:45;27.70;;;16.93;;
3597;SDS011;1813;52.016;8.714;2023-05-25T05:55:19;32.83;;;17.50;;
3597;SDS011;1813;52.016;8.714;2023-05-25T05:57:55;26.67;;;17.13;;
3597;SDS011;1813;52.016;8.714;2023-05-25T06:00:29;29.17;;;17.83;;
3597;SDS011;1813;52.016;8.714;2023-05-25T06:03:05;33.13;;;17.50;;
3597;SDS011;1813;52.016;8.714;2023-05-25T06:05:39;29.90;;;18.30;;
3597;SDS011;1813;52.016;8.714;2023-05-25T06:08:14;31.10;;;19.30;;
3597;SDS011;1813;52.016;8.714;2023-05-25T06:10:49;31.97;;;19.83;;
3597;SDS011;1813;52.016;8.714;2023-05-25T06:13:23;32.57;;;19.23;;
3597;SDS011;1813;52.016;8.714;2023-05-25T06:15:57;33.57;;;20.03;;
3597;SDS011;1813;52.016;8.714;2023-05-25T06:18:33;37.00;;;18.67;;
3597;SDS011;1813;52.016;8.714;2023-05-25T06:21:08;39.30;;;19.33;;
3597;SDS011;1813;52.016;8.714;2023-05-25T06:23:41;39.07;;;20.47;;
3597;SDS011;1813;52.016;8.714;2023-05-25T06:26:16;35.03;;;19.57;;
3597;SDS011;1813;52.016;8.714;2023-05-25T06:28:51;37.57;;;18.57;;
3597;SDS011;1813;52.016;8.714;2023-05-25T06:31:25;34.73;;;20.13;;
3597;SDS011;1813;52.016;8.714;2023-05-25T06:34:01;39.07;;;19.90;;
3597;SDS011;1813;52.016;8.714;2023-05-25T06:36:35;37.03;;;20.57;;
3597;SDS011;1813;52.016;8.714;2023-05-25T06:39:09;33.27;;;20.00;;
3597;SDS011;1813;52.016;8.714;2023-05-25T06:41:43;33.53;;;19.20;;
3597;SDS011;1813;52.016;8.714;2023-05-25T06:44:20;31.30;;;19.47;;
3597;SDS011;1813;52.016;8.714;2023-05-25T06:46:55;40.17;;;18.97;;
3597;SDS011;1813;52.016;8.714;2023-05-25T06:49:32;34.20;;;19.80;;
3597;SDS011;1813;52.016;8.714;2023-05-25T06:52:06;33.63;;;18.33;;
3597;SDS011;1813;52.016;8.714;2023-05-25T06:54:39;33.10;;;18.90;;
3597;SDS011;1813;52.016;8.714;2023-05-25T06:57:14;30.40;;;18.03;;
3597;SDS011;1813;52.016;8.714;2023-05-25T06:59:47;32.63;;;18.07;;
3597;SDS011;1813;52.016;8.714;2023-05-25T07:02:21;29.40;;;17.97;;
3597;SDS011;1813;52.016;8.714;2023-05-25T07:04:57;32.70;;;17.37;;
3597;SDS011;1813;52.016;8.714;2023-05-25T07:07:32;32.90;;;18.37;;
3597;SDS011;1813;52.016;8.714;2023-05-25T07:10:06;37.57;;;18.17;;
3597;SDS011;1813;52.016;8.714;2023-05-25T07:12:41;30.27;;;17.50;;
3597;SDS011;1813;52.016;8.714;2023-05-25T07:15:15;30.97;;;16.63;;
3597;SDS011;1813;52.016;8.714;2023-05-25T07:17:50;37.17;;;17.20;;
3597;SDS011;1813;52.016;8.714;2023-05-25T07:20:29;31.13;;;17.10;;
3597;SDS011;1813;52.016;8.714;2023-05-25T07:23:03;26.80;;;16.43;;
3597;SDS011;1813;52.016;8.714;2023-05-25T07:25:37;30.57;;;16.40;;
3597;SDS011;1813;52.016;8.714;2023-05-25T07:28:13;32.57;;;17.00;;
3597;SDS011;1813;52.016;8.714;2023-05-25T07:30:47;24.67;;;16.20;;
3597;SDS011;1813;52.016;8.714;2023-05-25T07:33:21;27.57;;;16.50;;
3597;SDS011;1813;52.016;8.714;2023-05-25T07:35:57;24.40;;;15.07;;
3597;SDS011;1813;52.016;8.714;2023-05-25T07:38:31;25.30;;;15.07;;
3597;SDS011;1813;52.016;8.714;2023-05-25T07:41:05;29.63;;;15.27;;
3597;SDS011;1813;52.016;8.714;2023-05-25T07:43:39;29.50;;;16.90;;
3597;SDS011;1813;52.016;8.714;2023-05-25T07:46:13;25.13;;;16.43;;
3597;SDS011;1813;52.016;8.714;2023-05-25T07:48:51;29.07;;;16.77;;
3597;SDS011;1813;52.016;8.714;2023-05-25T07:51:30;25.60;;;16.83;;
3597;SDS011;1813;52.016;8.714;2023-05-25T07:54:04;30.27;;;17.50;;
3597;SDS011;1813;52.016;8.714;2023-05-25T07:56:39;30.50;;;16.57;;
3597;SDS011;1813;52.016;8.714;2023-05-25T07:59:13;28.77;;;16.83;;
3597;SDS011;1813;52.016;8.714;2023-05-25T08:01:47;34.83;;;16.77;;
3597;SDS011;1813;52.016;8.714;2023-05-25T08:04:21;38.13;;;17.50;;
3597;SDS011;1813;52.016;8.714;2023-05-25T08:06:58;31.87;;;17.10;;
3597;SDS011;1813;52.016;8.714;2023-05-25T08:09:32;28.13;;;15.87;;
3597;SDS011;1813;52.016;8.714;2023-05-25T08:12:08;28.90;;;16.73;;
3597;SDS011;1813;52.016;8.714;2023-05-25T08:14:44;27.00;;;16.20;;
3597;SDS011;1813;52.016;8.714;2023-05-25T08:17:22;30.30;;;17.00;;
3597;SDS011;1813;52.016;8.714;2023-05-25T08:19:58;27.73;;;16.90;;
3597;SDS011;1813;52.016;8.714;2023-05-25T08:22:39;27.20;;;15.90;;
3597;SDS011;1813;52.016;8.714;2023-05-25T08:25:15;29.83;;;16.30;;
3597;SDS011;1813;52.016;8.714;2023-05-25T08:27:50;30.27;;;17.23;;
3597;SDS011;1813;52.016;8.714;2023-05-25T08:30:26;32.10;;;17.93;;
3597;SDS011;1813;52.016;8.714;2023-05-25T08:33:05;29.30;;;17.10;;
3597;SDS011;1813;52.016;8.714;2023-05-25T08:35:40;30.07;;;15.90;;
3597;SDS011;1813;52.016;8.714;2023-05-25T08:38:20;28.17;;;16.03;;
3597;SDS011;1813;52.016;8.714;2023-05-25T08:41:01;31.70;;;16.17;;
3597;SDS011;1813;52.016;8.714;2023-05-25T08:43:42;26.70;;;15.83;;
3597;SDS011;1813;52.016;8.714;2023-05-25T08:46:27;28.63;;;15.10;;
3597;SDS011;1813;52.016;8.714;2023-05-25T08:49:04;21.80;;;15.13;;
3597;SDS011;1813;52.016;8.714;2023-05-25T08:51:48;23.60;;;13.70;;
3597;SDS011;1813;52.016;8.714;2023-05-25T08:54:28;26.37;;;14.10;;
3597;SDS011;1813;52.016;8.714;2023-05-25T08:57:07;22.47;;;14.80;;
3597;SDS011;1813;52.016;8.714;2023-05-25T08:59:48;26.90;;;15.50;;
3597;SDS011;1813;52.016;8.714;2023-05-25T09:02:27;25.33;;;13.20;;
3597;SDS011;1813;52.016;8.714;2023-05-25T09:05:07;26.50;;;13.93;;
3597;SDS011;1813;52.016;8.714;2023-05-25T09:07:41;25.90;;;14.37;;
3597;SDS011;1813;52.016;8.714;2023-05-25T09:10:19;24.10;;;13.33;;
3597;SDS011;1813;52.016;8.714;2023-05-25T09:12:53;20.30;;;13.50;;
3597;SDS011;1813;52.016;8.714;2023-05-25T09:15:27;28.37;;;14.50;;
3597;SDS011;1813;52.016;8.714;2023-05-25T09:18:01;23.37;;;13.50;;
3597;SDS011;1813;52.016;8.714;2023-05-25T09:20:35;23.90;;;12.83;;
3597;SDS011;1813;52.016;8.714;2023-05-25T09:23:09;21.80;;;12.23;;
3597;SDS011;1813;52.016;8.714;2023-05-25T09:25:46;22.17;;;12.90;;
3597;SDS011;1813;52.016;8.714;2023-05-25T09:28:21;24.57;;;13.33;;
3597;SDS011;1813;52.016;8.714;2023-05-25T09:30:55;20.30;;;12.20;;
3597;SDS011;1813;52.016;8.714;2023-05-25T09:33:29;20.33;;;11.77;;
3597;SDS011;1813;52.016;8.714;2023-05-25T09:36:03;21.90;;;12.30;;
3597;SDS011;1813;52.016;8.714;2023-05-25T09:38:38;21.30;;;13.17;;
3597;SDS011;1813;52.016;8.714;2023-05-25T09:41:15;24.93;;;13.87;;
3597;SDS011;1813;52.016;8.714;2023-05-25T09:43:49;18.93;;;11.30;;
3597;SDS011;1813;52.016;8.714;2023-05-25T09:46:24;21.10;;;11.20;;
3597;SDS011;1813;52.016;8.714;2023-05-25T09:48:58;18.03;;;11.00;;
3597;SDS011;1813;52.016;8.714;2023-05-25T09:51:32;26.10;;;12.77;;
3597;SDS011;1813;52.016;8.714;2023-05-25T09:54:07;20.30;;;11.50;;
3597;SDS011;1813;52.016;8.714;2023-05-25T09:56:45;20.90;;;10.80;;
3597;SDS011;1813;52.016;8.714;2023-05-25T09:59:18;22.33;;;12.23;;
3597;SDS011;1813;52.016;8.714;2023-05-25T10:01:54;23.63;;;10.90;;
3597;SDS011;1813;52.016;8.714;2023-05-25T10:04:29;19.37;;;11.20;;
3597;SDS011;1813;52.016;8.714;2023-05-25T10:07:03;22.67;;;10.70;;
3597;SDS011;1813;52.016;8.714;2023-05-25T10:09:38;16.93;;;10.00;;
3597;SDS011;1813;52.016;8.714;2023-05-25T10:12:17;22.00;;;10.93;;
3597;SDS011;1813;52.016;8.714;2023-05-25T10:14:52;19.37;;;11.10;;
3597;SDS011;1813;52.016;8.714;2023-05-25T10:17:27;23.53;;;11.33;;
3597;SDS011;1813;52.016;8.714;2023-05-25T10:20:05;23.30;;;10.50;;
3597;SDS011;1813;52.016;8.714;2023-05-25T10:22:43;15.23;;;10.93;;
3597;SDS011;1813;52.016;8.714;2023-05-25T10:25:22;18.73;;;10.50;;
3597;SDS011;1813;52.016;8.714;2023-05-25T10:28:02;20.53;;;11.60;;
3597;SDS011;1813;52.016;8.714;2023-05-25T10:30:40;23.87;;;13.83;;
3597;SDS011;1813;52.016;8.714;2023-05-25T10:33:15;22.50;;;13.80;;
3597;SDS011;1813;52.016;8.714;2023-05-25T10:35:50;25.80;;;14.60;;
3597;SDS011;1813;52.016;8.714;2023-05-25T10:38:26;24.60;;;14.33;;
3597;SDS011;1813;52.016;8.714;2023-05-25T10:41:03;20.53;;;13.90;;
3597;SDS011;1813;52.016;8.714;2023-05-25T10:43:40;29.10;;;13.70;;
3597;SDS011;1813;52.016;8.714;2023-05-25T10:46:15;22.77;;;13.03;;
3597;SDS011;1813;52.016;8.714;2023-05-25T10:48:49;25.63;;;13.20;;
3597;SDS011;1813;52.016;8.714;2023-05-25T10:51:36;18.90;;;12.00;;
3597;SDS011;1813;52.016;8.714;2023-05-25T10:54:12;25.43;;;14.50;;
3597;SDS011;1813;52.016;8.714;2023-05-25T10:59:49;25.70;;;14.97;;
3597;SDS011;1813;52.016;8.714;2023-05-25T11:02:26;22.53;;;15.10;;
3597;SDS011;1813;52.016;8.714;2023-05-25T11:08:13;26.70;;;16.33;;
3597;SDS011;1813;52.016;8.714;2023-05-25T11:10:51;23.73;;;15.60;;
3597;SDS011;1813;52.016;8.714;2023-05-25T11:13:32;24.40;;;15.87;;
3597;SDS011;1813;52.016;8.714;2023-05-25T11:16:19;25.73;;;15.60;;
3597;SDS011;1813;52.016;8.714;2023-05-25T11:18:54;22.33;;;15.80;;
3597;SDS011;1813;52.016;8.714;2023-05-25T11:21:42;24.30;;;15.50;;
3597;SDS011;1813;52.016;8.714;2023-05-25T11:24:16;24.70;;;16.33;;
3597;SDS011;1813;52.016;8.714;2023-05-25T11:26:54;27.07;;;17.23;;
3597;SDS011;1813;52.016;8.714;2023-05-25T11:29:30;28.53;;;15.50;;
3597;SDS011;1813;52.016;8.714;2023-05-25T11:32:15;21.50;;;15.00;;
3597;SDS011;1813;52.016;8.714;2023-05-25T11:34:50;28.20;;;16.10;;
3597;SDS011;1813;52.016;8.714;2023-05-25T11:37:25;29.23;;;16.30;;
3597;SDS011;1813;52.016;8.714;2023-05-25T11:40:05;29.40;;;16.50;;
3597;SDS011;1813;52.016;8.714;2023-05-25T11:42:40;34.37;;;16.10;;
3597;SDS011;1813;52.016;8.714;2023-05-25T11:45:14;25.10;;;16.00;;
3597;SDS011;1813;52.016;8.714;2023-05-25T11:47:51;21.70;;;15.40;;
3597;SDS011;1813;52.016;8.714;2023-05-25T11:50:24;26.87;;;16.47;;
3597;SDS011;1813;52.016;8.714;2023-05-25T11:52:58;23.37;;;15.70;;
3597;SDS011;1813;52.016;8.714;2023-05-25T11:55:36;23.27;;;15.60;;
3597;SDS011;1813;52.016;8.714;2023-05-25T11:58:12;29.50;;;15.90;;
3597;SDS011;1813;52.016;8.714;2023-05-25T12:00:46;23.43;;;13.70;;
3597;SDS011;1813;52.016;8.714;2023-05-25T12:03:32;21.70;;;13.47;;
3597;SDS011;1813;52.016;8.714;2023-05-25T12:06:05;22.70;;;12.50;;
3597;SDS011;1813;52.016;8.714;2023-05-25T12:08:40;17.87;;;11.13;;
3597;SDS011;1813;52.016;8.714;2023-05-25T12:11:14;22.00;;;11.57;;
3597;SDS011;1813;52.016;8.714;2023-05-25T12:13:48;15.90;;;10.70;;
3597;SDS011;1813;52.016;8.714;2023-05-25T12:16:22;22.40;;;11.60;;
3597;SDS011;1813;52.016;8.714;2023-05-25T12:18:59;20.97;;;11.43;;
3597;SDS011;1813;52.016;8.714;2023-05-25T12:21:33;17.80;;;11.53;;
3597;SDS011;1813;52.016;8.714;2023-05-25T12:24:08;17.57;;;11.17;;
3597;SDS011;1813;52.016;8.714;2023-05-25T12:26:46;19.80;;;10.67;;
3597;SDS011;1813;52.016;8.714;2023-05-25T12:29:20;16.80;;;10.00;;
3597;SDS011;1813;52.016;8.714;2023-05-25T12:32:00;15.07;;;10.03;;
3597;SDS011;1813;52.016;8.714;2023-05-25T12:34:38;17.97;;;10.40;;
3597;SDS011;1813;52.016;8.714;2023-05-25T12:37:18;17.40;;;9.77;;
3597;SDS011;1813;52.016;8.714;2023-05-25T12:39:53;16.43;;;9.80;;
3597;SDS011;1813;52.016;8.714;2023-05-25T12:42:27;16.30;;;10.13;;
3597;SDS011;1813;52.016;8.714;2023-05-25T12:45:01;17.30;;;9.20;;
3597;SDS011;1813;52.016;8.714;2023-05-25T12:47:35;17.83;;;9.80;;
3597;SDS011;1813;52.016;8.714;2023-05-25T12:50:12;15.00;;;9.17;;
3597;SDS011;1813;52.016;8.714;2023-05-25T12:52:48;17.87;;;9.03;;
3597;SDS011;1813;52.016;8.714;2023-05-25T12:55:23;15.73;;;9.40;;
3597;SDS011;1813;52.016;8.714;2023-05-25T12:57:59;14.63;;;8.17;;
3597;SDS011;1813;52.016;8.714;2023-05-25T13:00:35;18.63;;;10.00;;
3597;SDS011;1813;52.016;8.714;2023-05-25T13:03:10;16.80;;;9.70;;
3597;SDS011;1813;52.016;8.714;2023-05-25T13:05:46;14.70;;;9.30;;
3597;SDS011;1813;52.016;8.714;2023-05-25T13:08:21;18.60;;;9.20;;
3597;SDS011;1813;52.016;8.714;2023-05-25T13:10:54;15.50;;;8.67;;
3597;SDS011;1813;52.016;8.714;2023-05-25T13:13:29;12.53;;;9.10;;
3597;SDS011;1813;52.016;8.714;2023-05-25T13:16:04;17.63;;;8.77;;
3597;SDS011;1813;52.016;8.714;2023-05-25T13:18:38;14.53;;;9.20;;
3597;SDS011;1813;52.016;8.714;2023-05-25T13:21:15;10.83;;;8.47;;
3597;SDS011;1813;52.016;8.714;2023-05-25T13:23:49;13.13;;;9.37;;
3597;SDS011;1813;52.016;8.714;2023-05-25T13:26:23;14.67;;;8.70;;
3597;SDS011;1813;52.016;8.714;2023-05-25T13:28:56;16.17;;;9.20;;
3597;SDS011;1813;52.016;8.714;2023-05-25T13:31:30;13.80;;;8.87;;
3597;SDS011;1813;52.016;8.714;2023-05-25T13:34:04;19.93;;;9.03;;
3597;SDS011;1813;52.016;8.714;2023-05-25T13:36:41;15.83;;;8.70;;
3597;SDS011;1813;52.016;8.714;2023-05-25T13:39:14;13.20;;;8.20;;
3597;SDS011;1813;52.016;8.714;2023-05-25T13:41:51;12.60;;;8.30;;
3597;SDS011;1813;52.016;8.714;2023-05-25T13:44:24;13.20;;;8.00;;
3597;SDS011;1813;52.016;8.714;2023-05-25T13:46:58;13.50;;;7.90;;
3597;SDS011;1813;52.016;8.714;2023-05-25T13:49:32;17.30;;;8.60;;
3597;SDS011;1813;52.016;8.714;2023-05-25T13:52:08;12.77;;;7.57;;
3597;SDS011;1813;52.016;8.714;2023-05-25T13:54:43;23.40;;;13.53;;
3597;SDS011;1813;52.016;8.714;2023-05-25T13:57:16;23.27;;;10.47;;
3597;SDS011;1813;52.016;8.714;2023-05-25T13:59:50;16.63;;;8.60;;
3597;SDS011;1813;52.016;8.714;2023-05-25T14:02:24;15.10;;;7.00;;
3597;SDS011;1813;52.016;8.714;2023-05-25T14:04:58;15.57;;;6.83;;
3597;SDS011;1813;52.016;8.714;2023-05-25T14:07:34;8.03;;;6.07;;
3597;SDS011;1813;52.016;8.714;2023-05-25T14:10:10;17.53;;;6.23;;
3597;SDS011;1813;52.016;8.714;2023-05-25T14:12:47;10.03;;;5.33;;
3597;SDS011;1813;52.016;8.714;2023-05-25T14:15:25;11.37;;;6.07;;
3597;SDS011;1813;52.016;8.714;2023-05-25T14:18:02;12.70;;;6.40;;
3597;SDS011;1813;52.016;8.714;2023-05-25T14:20:45;14.70;;;6.53;;
3597;SDS011;1813;52.016;8.714;2023-05-25T14:23:29;17.37;;;6.30;;
3597;SDS011;1813;52.016;8.714;2023-05-25T14:26:08;17.97;;;6.90;;
3597;SDS011;1813;52.016;8.714;2023-05-25T14:28:53;19.47;;;6.73;;
3597;SDS011;1813;52.016;8.714;2023-05-25T14:31:38;15.50;;;6.33;;
3597;SDS011;1813;52.016;8.714;2023-05-25T14:34:16;18.00;;;6.60;;
3597;SDS011;1813;52.016;8.714;2023-05-25T14:36:52;15.00;;;6.53;;
3597;SDS011;1813;52.016;8.714;2023-05-25T14:39:31;13.80;;;5.97;;
3597;SDS011;1813;52.016;8.714;2023-05-25T14:42:05;16.43;;;6.27;;
3597;SDS011;1813;52.016;8.714;2023-05-25T14:44:39;14.67;;;6.20;;
3597;SDS011;1813;52.016;8.714;2023-05-25T14:47:13;18.97;;;6.47;;
3597;SDS011;1813;52.016;8.714;2023-05-25T14:49:47;13.80;;;6.37;;
3597;SDS011;1813;52.016;8.714;2023-05-25T14:52:21;16.73;;;6.30;;
3597;SDS011;1813;52.016;8.714;2023-05-25T14:54:57;23.03;;;7.30;;
3597;SDS011;1813;52.016;8.714;2023-05-25T14:57:31;17.83;;;6.33;;
3597;SDS011;1813;52.016;8.714;2023-05-25T15:00:06;15.43;;;6.00;;
3597;SDS011;1813;52.016;8.714;2023-05-25T15:02:40;15.90;;;5.47;;
3597;SDS011;1813;52.016;8.714;2023-05-25T15:05:14;9.20;;;5.57;;
3597;SDS011;1813;52.016;8.714;2023-05-25T15:07:48;18.20;;;6.33;;
3597;SDS011;1813;52.016;8.714;2023-05-25T15:10:24;24.13;;;6.83;;
3597;SDS011;1813;52.016;8.714;2023-05-25T15:12:59;11.23;;;5.37;;
3597;SDS011;1813;52.016;8.714;2023-05-25T15:15:32;18.00;;;5.80;;
3597;SDS011;1813;52.016;8.714;2023-05-25T15:18:06;37.07;;;6.30;;
3597;SDS011;1813;52.016;8.714;2023-05-25T15:20:40;18.17;;;5.83;;
3597;SDS011;1813;52.016;8.714;2023-05-25T15:23:14;15.23;;;6.10;;
3597;SDS011;1813;52.016;8.714;2023-05-25T15:25:51;22.53;;;6.87;;
3597;SDS011;1813;52.016;8.714;2023-05-25T15:28:26;16.40;;;6.30;;
3597;SDS011;1813;52.016;8.714;2023-05-25T15:31:04;16.00;;;5.83;;
3597;SDS011;1813;52.016;8.714;2023-05-25T15:33:42;12.80;;;6.23;;
3597;SDS011;1813;52.016;8.714;2023-05-25T15:36:24;18.17;;;5.77;;
3597;SDS011;1813;52.016;8.714;2023-05-25T15:39:10;19.97;;;5.97;;
3597;SDS011;1813;52.016;8.714;2023-05-25T15:41:50;17.97;;;5.70;;
3597;SDS011;1813;52.016;8.714;2023-05-25T15:44:37;18.00;;;6.20;;
3597;SDS011;1813;52.016;8.714;2023-05-25T15:47:23;19.20;;;5.97;;
3597;SDS011;1813;52.016;8.714;2023-05-25T15:50:04;18.07;;;5.60;;